createdAt,value
2022-09-27T00:01:11.392Z,97421.00
2022-09-27T00:03:39.007Z,97434.00
2022-09-27T00:06:24.008Z,97428.00
2022-09-27T00:08:50.874Z,97431.00
2022-09-27T00:11:23.694Z,97439.00
2022-09-27T00:13:50.526Z,97425.00
2022-09-27T00:16:17.674Z,97429.00
2022-09-27T00:18:44.637Z,97425.00
2022-09-27T00:21:13.579Z,97431.00
2022-09-27T00:23:41.115Z,97424.00
2022-09-27T00:26:12.112Z,97430.00
2022-09-27T00:28:39.167Z,97419.00
2022-09-27T00:31:32.454Z,97429.00
2022-09-27T00:34:02.427Z,97427.00
2022-09-27T00:36:31.410Z,97425.00
2022-09-27T00:39:02.727Z,97423.00
2022-09-27T00:41:33.544Z,97424.00
2022-09-27T00:44:22.894Z,97433.00
2022-09-27T00:47:09.120Z,97429.00
2022-09-27T00:49:57.877Z,97429.00
2022-09-27T00:52:46.402Z,97446.00
2022-09-27T00:55:25.262Z,97452.00
2022-09-27T00:57:52.818Z,97454.00
2022-09-27T01:00:21.627Z,97439.00
2022-09-27T01:02:54.932Z,97446.00
2022-09-27T01:05:27.128Z,97448.00
2022-09-27T01:07:59.814Z,97453.00
2022-09-27T01:10:38.468Z,97453.00
2022-09-27T01:13:23.696Z,97461.00
2022-09-27T01:16:16.213Z,97470.00
2022-09-27T01:19:11.786Z,97471.00
2022-09-27T01:21:50.284Z,97483.00
2022-09-27T01:24:58.276Z,97481.00
2022-09-27T01:27:25.046Z,97487.00
2022-09-27T01:30:36.191Z,97495.00
2022-09-27T01:33:23.044Z,97493.00
2022-09-27T01:36:14.145Z,97518.00
2022-09-27T01:39:15.108Z,97516.00
2022-09-27T01:42:22.474Z,97519.00
2022-09-27T01:45:10.201Z,97513.00
2022-09-27T01:47:52.073Z,97521.00
2022-09-27T01:50:29.083Z,97514.00
2022-09-27T01:53:33.907Z,97530.00
2022-09-27T01:56:07.908Z,97531.00
2022-09-27T01:58:48.454Z,97511.00
2022-09-27T02:01:18.878Z,97509.00
2022-09-27T02:03:50.995Z,97525.00
2022-09-27T02:06:29.846Z,97520.00
2022-09-27T02:09:02.840Z,97520.00
2022-09-27T02:11:29.979Z,97522.00
2022-09-27T02:14:40.643Z,97516.00
2022-09-27T02:17:17.699Z,97509.00
2022-09-27T02:19:58.294Z,97521.00
2022-09-27T02:22:37.325Z,97513.00
2022-09-27T02:25:30.901Z,97516.00
2022-09-27T02:28:42.973Z,97516.00
2022-09-27T02:31:10.903Z,97511.00
2022-09-27T02:33:49.182Z,97528.00
2022-09-27T02:36:17.533Z,97529.00
2022-09-27T02:38:45.127Z,97525.00
2022-09-27T02:41:18.793Z,97521.00
2022-09-27T02:43:56.995Z,97524.00
2022-09-27T02:46:53.628Z,97531.00
2022-09-27T02:50:00.535Z,97531.00
2022-09-27T02:53:08.870Z,97528.00
2022-09-27T02:56:10.600Z,97535.00
2022-09-27T02:58:49.051Z,97533.00
2022-09-27T03:01:41.125Z,97532.00
2022-09-27T03:04:40.327Z,97520.00
2022-09-27T03:07:07.962Z,97531.00
2022-09-27T03:09:47.931Z,97527.00
2022-09-27T03:12:22.531Z,97533.00
2022-09-27T03:14:49.811Z,97528.00
2022-09-27T03:17:17.136Z,97545.00
2022-09-27T03:19:43.965Z,97548.00
2022-09-27T03:22:10.926Z,97564.00
2022-09-27T03:24:37.783Z,97571.00
2022-09-27T03:27:04.689Z,97573.00
2022-09-27T03:29:32.102Z,97586.00
2022-09-27T03:31:59.274Z,97578.00
2022-09-27T03:34:26.163Z,97567.00
2022-09-27T03:36:53.084Z,97577.00
2022-09-27T03:39:19.950Z,97563.00
2022-09-27T03:41:47.169Z,97574.00
2022-09-27T03:44:14.040Z,97583.00
2022-09-27T03:46:40.895Z,97581.00
2022-09-27T03:49:07.727Z,97572.00
2022-09-27T03:51:34.552Z,97581.00
2022-09-27T03:54:01.541Z,97579.00
2022-09-27T03:56:29.172Z,97581.00
2022-09-27T03:58:55.893Z,97583.00
2022-09-27T04:01:22.845Z,97590.00
2022-09-27T04:03:49.936Z,97603.00
2022-09-27T04:06:17.898Z,97606.00
2022-09-27T04:08:45.929Z,97602.00
2022-09-27T04:11:15.228Z,97601.00
2022-09-27T04:13:44.432Z,97611.00
2022-09-27T04:16:11.446Z,97603.00
2022-09-27T04:18:38.409Z,97618.00
2022-09-27T04:21:05.459Z,97620.00
2022-09-27T04:23:32.310Z,97631.00
2022-09-27T04:25:59.264Z,97628.00
2022-09-27T04:28:26.158Z,97612.00
2022-09-27T04:30:54.186Z,97609.00
2022-09-27T04:33:21.515Z,97604.00
2022-09-27T04:36:06.751Z,97612.00
2022-09-27T04:38:33.845Z,97601.00
2022-09-27T04:41:01.952Z,97614.00
2022-09-27T04:43:29.350Z,97619.00
2022-09-27T04:45:56.233Z,97620.00
2022-09-27T04:48:23.353Z,97610.00
2022-09-27T04:50:58.337Z,97630.00
2022-09-27T04:53:25.679Z,97615.00
2022-09-27T04:55:54.772Z,97615.00
2022-09-27T04:58:25.217Z,97621.00
2022-09-27T05:00:53.158Z,97627.00
2022-09-27T05:03:19.983Z,97627.00
2022-09-27T05:05:46.835Z,97632.00
2022-09-27T05:08:14.090Z,97648.00
2022-09-27T05:10:40.966Z,97650.00
2022-09-27T05:13:07.846Z,97661.00
2022-09-27T05:15:35.606Z,97667.00
2022-09-27T05:18:02.351Z,97674.00
2022-09-27T05:20:29.532Z,97674.00
2022-09-27T05:22:56.886Z,97674.00
2022-09-27T05:25:23.999Z,97672.00
2022-09-27T05:27:51.721Z,97676.00
2022-09-27T05:30:18.796Z,97680.00
2022-09-27T05:32:50.123Z,97678.00
2022-09-27T05:35:19.261Z,97679.00
2022-09-27T05:38:00.551Z,97688.00
2022-09-27T05:40:40.936Z,97684.00
2022-09-27T05:43:09.200Z,97690.00
2022-09-27T05:45:36.716Z,97677.00
2022-09-27T05:48:05.153Z,97677.00
2022-09-27T05:50:32.714Z,97684.00
2022-09-27T05:52:59.628Z,97696.00
2022-09-27T05:55:26.647Z,97687.00
2022-09-27T05:58:02.185Z,97695.00
2022-09-27T06:00:29.615Z,97691.00
2022-09-27T06:03:03.762Z,97704.00
2022-09-27T06:05:36.432Z,97707.00
2022-09-27T06:08:10.563Z,97707.00
2022-09-27T06:10:39.502Z,97703.00
2022-09-27T06:13:12.698Z,97707.00
2022-09-27T06:15:42.736Z,97710.00
2022-09-27T06:18:15.029Z,97711.00
2022-09-27T06:20:42.998Z,97708.00
2022-09-27T06:23:14.449Z,97712.00
2022-09-27T06:25:42.422Z,97715.00
2022-09-27T06:28:10.758Z,97711.00
2022-09-27T06:30:46.309Z,97731.00
2022-09-27T06:33:16.722Z,97724.00
2022-09-27T06:35:45.344Z,97731.00
2022-09-27T06:38:18.109Z,97731.00
2022-09-27T06:40:46.294Z,97735.00
2022-09-27T06:43:17.966Z,97732.00
2022-09-27T06:45:44.904Z,97741.00
2022-09-27T06:48:16.045Z,97746.00
2022-09-27T06:50:45.539Z,97756.00
2022-09-27T06:53:15.458Z,97747.00
2022-09-27T06:55:42.707Z,97744.00
2022-09-27T06:58:31.615Z,97751.00
2022-09-27T07:00:58.894Z,97750.00
2022-09-27T07:03:36.464Z,97756.00
2022-09-27T07:06:06.622Z,97760.00
2022-09-27T07:08:35.874Z,97757.00
2022-09-27T07:11:06.663Z,97770.00
2022-09-27T07:13:34.518Z,97773.00
2022-09-27T07:16:01.948Z,97770.00
2022-09-27T07:18:29.108Z,97772.00
2022-09-27T07:21:00.161Z,97765.00
2022-09-27T07:23:28.041Z,97773.00
2022-09-27T07:25:54.939Z,97778.00
2022-09-27T07:28:22.557Z,97771.00
2022-09-27T07:30:49.976Z,97779.00
2022-09-27T07:33:16.949Z,97769.00
2022-09-27T07:35:43.957Z,97776.00
2022-09-27T07:38:14.099Z,97778.00
2022-09-27T07:40:42.385Z,97791.00
2022-09-27T07:43:09.798Z,97789.00
2022-09-27T07:45:37.528Z,97783.00
2022-09-27T07:48:06.946Z,97784.00
2022-09-27T07:50:34.944Z,97771.00
2022-09-27T07:53:01.942Z,97778.00
2022-09-27T07:55:28.837Z,97783.00
2022-09-27T07:58:04.888Z,97793.00
2022-09-27T08:00:31.915Z,97788.00
2022-09-27T08:02:58.771Z,97791.00
2022-09-27T08:05:25.761Z,97791.00
2022-09-27T08:07:56.931Z,97789.00
2022-09-27T08:10:27.259Z,97792.00
2022-09-27T08:12:54.426Z,97800.00
2022-09-27T08:15:21.283Z,97812.00
2022-09-27T08:17:48.115Z,97808.00
2022-09-27T08:20:15.211Z,97814.00
2022-09-27T08:22:43.578Z,97812.00
2022-09-27T08:25:10.679Z,97810.00
2022-09-27T08:27:37.789Z,97810.00
2022-09-27T08:30:05.534Z,97801.00
2022-09-27T08:32:32.986Z,97815.00
2022-09-27T08:34:59.954Z,97815.00
2022-09-27T08:37:27.070Z,97816.00
2022-09-27T08:39:54.098Z,97822.00
2022-09-27T08:42:55.575Z,97823.00
2022-09-27T08:45:37.467Z,97811.00
2022-09-27T08:48:06.607Z,97813.00
2022-09-27T08:50:41.527Z,97815.00
2022-09-27T08:53:14.382Z,97824.00
2022-09-27T08:55:51.377Z,97824.00
2022-09-27T08:58:28.411Z,97819.00
2022-09-27T09:01:03.521Z,97800.00
2022-09-27T09:03:36.179Z,97812.00
2022-09-27T09:06:39.187Z,97816.00
2022-09-27T09:09:36.509Z,97823.00
2022-09-27T09:12:42.939Z,97818.00
2022-09-27T09:15:54.200Z,97824.00
2022-09-27T09:18:58.386Z,97810.00
2022-09-27T09:21:44.763Z,97808.00
2022-09-27T09:25:07.882Z,97812.00
2022-09-27T09:28:32.477Z,97811.00
2022-09-27T09:31:43.874Z,97816.00
2022-09-27T09:34:52.363Z,97800.00
2022-09-27T09:37:33.338Z,97797.00
2022-09-27T09:40:32.406Z,97785.00
2022-09-27T09:43:26.155Z,97784.00
2022-09-27T09:46:05.541Z,97787.00
2022-09-27T09:48:49.858Z,97785.00
2022-09-27T09:51:32.406Z,97776.00
2022-09-27T09:54:28.002Z,97775.00
2022-09-27T09:57:16.132Z,97758.00
2022-09-27T10:00:15.509Z,97750.00
2022-09-27T10:02:49.316Z,97758.00
2022-09-27T10:05:22.919Z,97761.00
2022-09-27T10:07:55.071Z,97757.00
2022-09-27T10:10:22.975Z,97754.00
2022-09-27T10:12:50.767Z,97765.00
2022-09-27T10:15:22.909Z,97754.00
2022-09-27T10:17:54.396Z,97757.00
2022-09-27T10:20:43.535Z,97756.00
2022-09-27T10:23:21.487Z,97755.00
2022-09-27T10:25:59.931Z,97758.00
2022-09-27T10:28:45.947Z,97769.00
2022-09-27T10:31:18.115Z,97765.00
2022-09-27T10:34:07.297Z,97756.00
2022-09-27T10:36:36.321Z,97747.00
2022-09-27T10:39:07.019Z,97756.00
2022-09-27T10:41:41.494Z,97762.00
2022-09-27T10:44:20.023Z,97766.00
2022-09-27T10:46:51.791Z,97753.00
2022-09-27T10:49:23.087Z,97769.00
2022-09-27T10:52:16.327Z,97748.00
2022-09-27T10:55:13.621Z,97756.00
2022-09-27T10:57:44.958Z,97742.00
2022-09-27T11:00:28.256Z,97741.00
2022-09-27T11:03:07.095Z,97741.00
2022-09-27T11:05:38.302Z,97757.00
2022-09-27T11:08:25.256Z,97749.00
2022-09-27T11:11:13.811Z,97753.00
2022-09-27T11:13:41.759Z,97746.00
2022-09-27T11:16:14.066Z,97774.00
2022-09-27T11:19:29.443Z,97766.00
2022-09-27T11:22:16.567Z,97766.00
2022-09-27T11:25:08.455Z,97760.00
2022-09-27T11:28:14.720Z,97751.00
2022-09-27T11:30:53.769Z,97757.00
2022-09-27T11:33:51.895Z,97756.00
2022-09-27T11:36:55.383Z,97756.00
2022-09-27T11:39:52.943Z,97759.00
2022-09-27T11:42:47.711Z,97761.00
2022-09-27T11:46:10.873Z,97753.00
2022-09-27T11:48:40.981Z,97753.00
2022-09-27T11:51:13.763Z,97749.00
2022-09-27T11:54:10.432Z,97770.00
2022-09-27T11:57:04.753Z,97780.00
2022-09-27T12:00:09.058Z,97792.00
2022-09-27T12:03:11.690Z,97775.00
2022-09-27T12:06:01.458Z,97759.00
2022-09-27T12:09:04.965Z,97750.00
2022-09-27T12:11:51.567Z,97740.00
2022-09-27T12:14:44.402Z,97718.00
2022-09-27T12:17:33.163Z,97725.00
2022-09-27T12:20:24.469Z,97731.00
2022-09-27T12:23:11.935Z,97729.00
2022-09-27T12:25:42.747Z,97727.00
2022-09-27T12:28:15.439Z,97724.00
2022-09-27T12:31:10.880Z,97703.00
2022-09-27T12:34:20.163Z,97726.00
2022-09-27T12:37:28.090Z,97712.00
2022-09-27T12:40:14.157Z,97718.00
2022-09-27T12:43:21.794Z,97727.00
2022-09-27T12:46:17.854Z,97714.00
2022-09-27T12:48:54.166Z,97730.00
2022-09-27T12:51:24.130Z,97736.00
2022-09-27T12:54:25.934Z,97737.00
2022-09-27T12:57:09.601Z,97722.00
2022-09-27T13:00:01.361Z,97729.00
2022-09-27T13:03:03.917Z,97738.00
2022-09-27T13:06:06.960Z,97735.00
2022-09-27T13:09:19.176Z,97737.00
2022-09-27T13:12:22.081Z,97737.00
2022-09-27T13:15:06.707Z,97742.00
2022-09-27T13:17:44.675Z,97771.00
2022-09-27T13:20:35.560Z,97791.00
2022-09-27T13:23:20.245Z,97796.00
2022-09-27T13:25:58.031Z,97800.00
2022-09-27T13:28:29.158Z,97797.00
2022-09-27T13:30:58.371Z,97790.00
2022-09-27T13:33:52.321Z,97776.00
2022-09-27T13:36:26.206Z,97758.00
2022-09-27T13:39:01.774Z,97760.00
2022-09-27T13:41:44.646Z,97751.00
2022-09-27T13:44:46.373Z,97760.00
2022-09-27T13:47:36.419Z,97751.00
2022-09-27T13:50:37.727Z,97761.00
2022-09-27T13:53:31.635Z,97753.00
2022-09-27T13:55:59.178Z,97750.00
2022-09-27T13:58:48.900Z,97752.00
2022-09-27T14:01:28.642Z,97742.00
2022-09-27T14:04:22.424Z,97753.00
2022-09-27T14:06:59.982Z,97745.00
2022-09-27T14:09:38.601Z,97751.00
2022-09-27T14:12:16.440Z,97758.00
2022-09-27T14:14:44.022Z,97752.00
2022-09-27T14:17:12.613Z,97752.00
2022-09-27T14:19:43.868Z,97759.00
2022-09-27T14:22:20.810Z,97752.00
2022-09-27T14:24:53.493Z,97750.00
2022-09-27T14:27:22.939Z,97758.00
2022-09-27T14:29:56.612Z,97741.00
2022-09-27T14:32:32.171Z,97741.00
2022-09-27T14:35:37.491Z,97746.00
2022-09-27T14:38:36.658Z,97755.00
2022-09-27T14:41:07.145Z,97751.00
2022-09-27T14:43:41.336Z,97750.00
2022-09-27T14:46:23.576Z,97748.00
2022-09-27T14:48:50.919Z,97750.00
2022-09-27T14:51:32.605Z,97757.00
2022-09-27T14:54:04.016Z,97754.00
2022-09-27T14:56:37.284Z,97748.00
2022-09-27T14:59:30.767Z,97748.00
2022-09-27T15:02:01.734Z,97745.00
2022-09-27T15:04:32.219Z,97738.00
2022-09-27T15:07:02.738Z,97752.00
2022-09-27T15:09:33.351Z,97744.00
2022-09-27T15:12:02.468Z,97746.00
2022-09-27T15:14:33.397Z,97731.00
2022-09-27T15:17:05.555Z,97744.00
2022-09-27T15:19:34.527Z,97736.00
2022-09-27T15:22:34.574Z,97730.00
2022-09-27T15:25:44.275Z,97733.00
2022-09-27T15:28:10.979Z,97735.00
2022-09-27T15:30:40.357Z,97729.00
2022-09-27T15:33:31.661Z,97735.00
2022-09-27T15:36:03.521Z,97731.00
2022-09-27T15:38:46.234Z,97734.00
2022-09-27T15:41:13.761Z,97738.00
2022-09-27T15:43:42.497Z,97741.00
2022-09-27T15:46:43.986Z,97732.00
2022-09-27T15:49:16.946Z,97742.00
2022-09-27T15:51:55.882Z,97747.00
2022-09-27T15:54:27.658Z,97756.00
2022-09-27T15:56:59.441Z,97759.00
2022-09-27T15:59:34.571Z,97752.00
2022-09-27T16:02:18.013Z,97753.00
2022-09-27T16:04:46.048Z,97775.00
2022-09-27T16:07:15.279Z,97786.00
2022-09-27T16:09:43.523Z,97787.00
2022-09-27T16:12:10.303Z,97785.00
2022-09-27T16:14:37.297Z,97788.00
2022-09-27T16:17:04.144Z,97793.00
2022-09-27T16:19:30.990Z,97783.00
2022-09-27T16:21:57.795Z,97793.00
2022-09-27T16:24:25.515Z,97780.00
2022-09-27T16:26:53.353Z,97783.00
2022-09-27T16:29:20.197Z,97790.00
2022-09-27T16:31:47.400Z,97781.00
2022-09-27T16:34:14.361Z,97789.00
2022-09-27T16:36:41.303Z,97775.00
2022-09-27T16:39:13.073Z,97771.00
2022-09-27T16:41:43.809Z,97770.00
2022-09-27T16:44:14.140Z,97779.00
2022-09-27T16:46:42.444Z,97775.00
2022-09-27T16:49:29.365Z,97789.00
2022-09-27T16:52:00.288Z,97783.00
2022-09-27T16:54:29.249Z,97785.00
2022-09-27T16:56:57.971Z,97791.00
2022-09-27T16:59:25.229Z,97788.00
2022-09-27T17:01:56.799Z,97777.00
2022-09-27T17:04:25.342Z,97776.00
2022-09-27T17:06:52.354Z,97784.00
2022-09-27T17:09:20.683Z,97799.00
2022-09-27T17:11:47.800Z,97792.00
2022-09-27T17:14:34.304Z,97800.00
2022-09-27T17:17:01.258Z,97813.00
2022-09-27T17:19:28.318Z,97807.00
2022-09-27T17:21:57.715Z,97817.00
2022-09-27T17:24:24.960Z,97802.00
2022-09-27T17:26:52.290Z,97803.00
2022-09-27T17:29:19.178Z,97810.00
2022-09-27T17:31:46.334Z,97803.00
2022-09-27T17:34:14.310Z,97808.00
2022-09-27T17:36:48.254Z,97810.00
2022-09-27T17:39:21.249Z,97804.00
2022-09-27T17:41:51.630Z,97802.00
2022-09-27T17:44:19.065Z,97801.00
2022-09-27T17:46:47.142Z,97780.00
2022-09-27T17:49:33.232Z,97776.00
2022-09-27T17:52:00.591Z,97774.00
2022-09-27T17:54:28.141Z,97803.00
2022-09-27T17:56:56.403Z,97788.00
2022-09-27T17:59:23.621Z,97803.00
2022-09-27T18:01:50.628Z,97798.00
2022-09-27T18:04:19.696Z,97799.00
2022-09-27T18:06:47.716Z,97798.00
2022-09-27T18:09:16.851Z,97796.00
2022-09-27T18:11:45.232Z,97792.00
2022-09-27T18:14:12.311Z,97791.00
2022-09-27T18:16:42.860Z,97783.00
2022-09-27T18:19:16.663Z,97789.00
2022-09-27T18:21:43.973Z,97794.00
2022-09-27T18:24:11.623Z,97775.00
2022-09-27T18:26:40.066Z,97792.00
2022-09-27T18:29:14.053Z,97784.00
2022-09-27T18:31:48.025Z,97791.00
2022-09-27T18:34:19.262Z,97780.00
2022-09-27T18:36:46.749Z,97785.00
2022-09-27T18:39:18.969Z,97772.00
2022-09-27T18:41:49.085Z,97800.00
2022-09-27T18:44:17.884Z,97775.00
2022-09-27T18:46:45.094Z,97773.00
2022-09-27T18:49:14.793Z,97778.00
2022-09-27T18:51:44.767Z,97793.00
2022-09-27T18:54:19.550Z,97792.00
2022-09-27T18:56:49.184Z,97796.00
2022-09-27T18:59:17.146Z,97785.00
2022-09-27T19:01:45.831Z,97773.00
2022-09-27T19:04:21.507Z,97769.00
2022-09-27T19:06:51.054Z,97760.00
2022-09-27T19:09:18.310Z,97770.00
2022-09-27T19:11:45.562Z,97762.00
2022-09-27T19:14:17.809Z,97769.00
2022-09-27T19:16:47.046Z,97761.00
2022-09-27T19:19:19.464Z,97781.00
2022-09-27T19:21:47.181Z,97771.00
2022-09-27T19:24:15.080Z,97774.00
2022-09-27T19:26:42.396Z,97772.00
2022-09-27T19:29:09.369Z,97772.00
2022-09-27T19:31:36.390Z,97768.00
2022-09-27T19:34:03.967Z,97768.00
2022-09-27T19:36:31.063Z,97769.00
2022-09-27T19:38:58.827Z,97768.00
2022-09-27T19:41:26.507Z,97772.00
2022-09-27T19:43:55.404Z,97772.00
2022-09-27T19:46:24.829Z,97760.00
2022-09-27T19:48:53.828Z,97762.00
2022-09-27T19:51:27.503Z,97767.00
2022-09-27T19:53:55.370Z,97765.00
2022-09-27T19:56:23.839Z,97769.00
2022-09-27T19:58:50.825Z,97753.00
2022-09-27T20:01:23.354Z,97758.00
2022-09-27T20:03:53.258Z,97746.00
2022-09-27T20:06:21.756Z,97732.00
2022-09-27T20:08:49.098Z,97702.00
2022-09-27T20:11:22.772Z,97718.00
2022-09-27T20:13:52.225Z,97723.00
2022-09-27T20:16:22.641Z,97729.00
2022-09-27T20:19:00.932Z,97715.00
2022-09-27T20:21:34.949Z,97727.00
2022-09-27T20:24:04.305Z,97722.00
2022-09-27T20:26:36.372Z,97718.00
2022-09-27T20:29:06.417Z,97727.00
2022-09-27T20:31:37.151Z,97722.00
2022-09-27T20:34:07.348Z,97708.00
2022-09-27T20:36:37.233Z,97722.00
2022-09-27T20:39:13.128Z,97720.00
2022-09-27T20:41:48.915Z,97709.00
2022-09-27T20:44:19.309Z,97703.00
2022-09-27T20:46:47.952Z,97703.00
2022-09-27T20:49:18.610Z,97692.00
2022-09-27T20:51:51.258Z,97694.00
2022-09-27T20:54:18.669Z,97693.00
2022-09-27T20:56:48.215Z,97674.00
2022-09-27T20:59:23.343Z,97667.00
2022-09-27T21:01:52.269Z,97670.00
2022-09-27T21:04:22.327Z,97656.00
2022-09-27T21:06:49.160Z,97665.00
2022-09-27T21:09:19.723Z,97658.00
2022-09-27T21:11:48.709Z,97675.00
2022-09-27T21:14:15.709Z,97665.00
2022-09-27T21:16:42.619Z,97661.00
2022-09-27T21:19:10.043Z,97655.00
2022-09-27T21:21:37.259Z,97648.00
2022-09-27T21:24:04.620Z,97638.00
2022-09-27T21:26:33.845Z,97639.00
2022-09-27T21:29:06.654Z,97626.00
2022-09-27T21:31:36.193Z,97624.00
2022-09-27T21:34:05.261Z,97625.00
2022-09-27T21:36:35.780Z,97620.00
2022-09-27T21:39:04.591Z,97620.00
2022-09-27T21:41:31.609Z,97619.00
2022-09-27T21:43:58.638Z,97608.00
2022-09-27T21:46:28.440Z,97615.00
2022-09-27T21:48:58.326Z,97625.00
2022-09-27T21:51:29.534Z,97626.00
2022-09-27T21:54:03.809Z,97624.00
2022-09-27T21:56:37.457Z,97620.00
2022-09-27T21:59:05.665Z,97626.00
2022-09-27T22:01:34.495Z,97615.00
2022-09-27T22:04:04.797Z,97613.00
2022-09-27T22:06:35.464Z,97610.00
2022-09-27T22:09:08.203Z,97614.00
2022-09-27T22:11:40.010Z,97611.00
2022-09-27T22:14:06.865Z,97602.00
2022-09-27T22:16:33.876Z,97608.00
2022-09-27T22:19:01.024Z,97598.00
2022-09-27T22:21:35.061Z,97603.00
2022-09-27T22:24:10.878Z,97584.00
2022-09-27T22:26:41.082Z,97585.00
2022-09-27T22:29:08.977Z,97585.00
2022-09-27T22:31:37.318Z,97584.00
2022-09-27T22:34:07.576Z,97572.00
2022-09-27T22:36:35.294Z,97563.00
2022-09-27T22:39:02.102Z,97552.00
2022-09-27T22:41:30.523Z,97557.00
2022-09-27T22:43:57.918Z,97556.00
2022-09-27T22:46:25.057Z,97543.00
2022-09-27T22:48:52.641Z,97528.00
2022-09-27T22:51:19.503Z,97541.00
2022-09-27T22:53:46.421Z,97538.00
2022-09-27T22:56:19.929Z,97537.00
2022-09-27T22:58:49.063Z,97526.00
2022-09-27T23:01:20.487Z,97522.00
2022-09-27T23:03:49.528Z,97529.00
2022-09-27T23:06:19.069Z,97524.00
2022-09-27T23:08:47.018Z,97523.00
2022-09-27T23:11:18.532Z,97525.00
2022-09-27T23:13:48.023Z,97513.00
2022-09-27T23:16:20.242Z,97509.00
2022-09-27T23:18:47.761Z,97501.00
2022-09-27T23:21:16.053Z,97513.00
2022-09-27T23:23:45.807Z,97504.00
2022-09-27T23:26:16.008Z,97486.00
2022-09-27T23:28:43.151Z,97480.00
2022-09-27T23:31:16.778Z,97472.00
2022-09-27T23:33:47.451Z,97468.00
2022-09-27T23:36:18.951Z,97469.00
2022-09-27T23:38:48.416Z,97454.00
2022-09-27T23:41:17.165Z,97435.00
2022-09-27T23:43:45.142Z,97439.00
2022-09-27T23:46:13.319Z,97431.00
2022-09-27T23:48:41.019Z,97426.00
2022-09-27T23:51:11.339Z,97414.00
2022-09-27T23:53:39.730Z,97415.00
2022-09-27T23:56:16.524Z,97410.00
2022-09-27T23:58:45.829Z,97407.00
